Terminal Aerodrome Forecast
Issued by NWS

Home | Current Version | Previous Version | Text Only | Print | Product List | Glossary On
Versions: 1 2 3 4 5 6 7 8 9 10 11 12 13 14 15 16 17 18 19
877
FTUS45 KPIH 241454 AAB
TAFSUN
TAF AMD
KSUN 241454Z 2415/2518 VRB05KT P6SM VCSH SCT005 OVC010
     FM241700 VRB05KT P6SM SCT010 BKN050
     FM242100 24011KT P6SM FEW080
     FM250300 31009KT P6SM SKC=

USA.gov is the U.S. government's official web portal to all federal, state and local government web resources and services.